Terminal Aerodrome Forecast
Issued by NWS

Home | Current Version | Previous Version | Text Only | Print | Product List | Glossary On
Versions: 1 2 3 4 5 6 7 8 9 10 11 12 13 14 15 16 17
652
FTUS45 KTFX 292326
TAFLWT
TAF
KLWT 292326Z 3000/3024 11011KT P6SM OVC045
     FM301100 09005KT P6SM VCFG SCT005 OVC035
     FM301500 09010KT P6SM OVC070=

USA.gov is the U.S. government's official web portal to all federal, state and local government web resources and services.